sensor_id;sensor_type;location;lat;lon;timestamp;temperature;humidity
28546;DHT22;15749;49.606;8.738;2024-01-25T00:00:11;14.40;1.00
28546;DHT22;15749;49.606;8.738;2024-01-25T00:02:40;14.40;1.00
28546;DHT22;15749;49.606;8.738;2024-01-25T00:05:09;14.40;1.00
28546;DHT22;15749;49.606;8.738;2024-01-25T00:07:46;14.40;1.00
28546;DHT22;15749;49.606;8.738;2024-01-25T00:10:16;14.40;1.00
28546;DHT22;15749;49.606;8.738;2024-01-25T00:12:46;14.40;1.00
28546;DHT22;15749;49.606;8.738;2024-01-25T00:15:16;14.40;1.00
28546;DHT22;15749;49.606;8.738;2024-01-25T00:17:45;14.40;1.00
28546;DHT22;15749;49.606;8.738;2024-01-25T00:20:14;14.40;1.00
28546;DHT22;15749;49.606;8.738;2024-01-25T00:22:44;14.40;1.00
28546;DHT22;15749;49.606;8.738;2024-01-25T00:25:14;14.40;1.00
28546;DHT22;15749;49.606;8.738;2024-01-25T00:27:43;14.40;1.00
28546;DHT22;15749;49.606;8.738;2024-01-25T00:30:15;14.40;1.00
28546;DHT22;15749;49.606;8.738;2024-01-25T00:32:44;14.40;1.00
28546;DHT22;15749;49.606;8.738;2024-01-25T00:35:14;14.40;1.00
28546;DHT22;15749;49.606;8.738;2024-01-25T00:37:44;14.40;1.00
28546;DHT22;15749;49.606;8.738;2024-01-25T00:40:16;14.40;1.00
28546;DHT22;15749;49.606;8.738;2024-01-25T00:42:47;14.40;1.00
28546;DHT22;15749;49.606;8.738;2024-01-25T00:45:22;14.40;1.00
28546;DHT22;15749;49.606;8.738;2024-01-25T00:47:52;14.40;1.00
28546;DHT22;15749;49.606;8.738;2024-01-25T00:50:22;14.40;1.00
28546;DHT22;15749;49.606;8.738;2024-01-25T00:52:53;14.40;1.00
28546;DHT22;15749;49.606;8.738;2024-01-25T00:55:24;14.40;1.00
28546;DHT22;15749;49.606;8.738;2024-01-25T00:57:54;14.40;1.00
28546;DHT22;15749;49.606;8.738;2024-01-25T01:00:24;14.40;1.00
28546;DHT22;15749;49.606;8.738;2024-01-25T01:02:54;14.40;1.00
28546;DHT22;15749;49.606;8.738;2024-01-25T01:05:25;14.40;1.00
28546;DHT22;15749;49.606;8.738;2024-01-25T01:07:55;14.40;1.00
28546;DHT22;15749;49.606;8.738;2024-01-25T01:10:25;14.40;1.00
28546;DHT22;15749;49.606;8.738;2024-01-25T01:13:01;14.50;1.00
28546;DHT22;15749;49.606;8.738;2024-01-25T01:15:49;14.50;1.00
28546;DHT22;15749;49.606;8.738;2024-01-25T01:18:19;14.50;1.00
28546;DHT22;15749;49.606;8.738;2024-01-25T01:20:48;14.50;1.00
28546;DHT22;15749;49.606;8.738;2024-01-25T01:23:18;14.40;1.00
28546;DHT22;15749;49.606;8.738;2024-01-25T01:25:48;14.50;1.00
28546;DHT22;15749;49.606;8.738;2024-01-25T01:28:18;14.40;1.00
28546;DHT22;15749;49.606;8.738;2024-01-25T01:30:47;14.50;1.00
28546;DHT22;15749;49.606;8.738;2024-01-25T01:33:18;14.40;1.00
28546;DHT22;15749;49.606;8.738;2024-01-25T01:35:47;14.40;1.00
28546;DHT22;15749;49.606;8.738;2024-01-25T01:38:16;14.50;1.00
28546;DHT22;15749;49.606;8.738;2024-01-25T01:40:45;14.40;1.00
28546;DHT22;15749;49.606;8.738;2024-01-25T01:43:19;14.40;1.00
28546;DHT22;15749;49.606;8.738;2024-01-25T01:45:51;14.40;99.90
28546;DHT22;15749;49.606;8.738;2024-01-25T01:48:20;14.40;1.00
28546;DHT22;15749;49.606;8.738;2024-01-25T01:50:49;14.40;1.00
28546;DHT22;15749;49.606;8.738;2024-01-25T01:53:19;14.40;1.00
28546;DHT22;15749;49.606;8.738;2024-01-25T01:55:48;14.40;1.00
28546;DHT22;15749;49.606;8.738;2024-01-25T01:58:21;14.40;1.00
28546;DHT22;15749;49.606;8.738;2024-01-25T02:00:51;14.40;99.90
28546;DHT22;15749;49.606;8.738;2024-01-25T02:03:22;14.40;1.00
28546;DHT22;15749;49.606;8.738;2024-01-25T02:05:51;14.40;1.00
28546;DHT22;15749;49.606;8.738;2024-01-25T02:08:20;14.40;1.00
28546;DHT22;15749;49.606;8.738;2024-01-25T02:10:49;14.40;1.00
28546;DHT22;15749;49.606;8.738;2024-01-25T02:13:21;14.40;1.00
28546;DHT22;15749;49.606;8.738;2024-01-25T02:15:50;14.40;1.00
28546;DHT22;15749;49.606;8.738;2024-01-25T02:18:19;14.40;1.00
28546;DHT22;15749;49.606;8.738;2024-01-25T02:20:48;14.40;1.00
28546;DHT22;15749;49.606;8.738;2024-01-25T02:23:19;14.40;1.00
28546;DHT22;15749;49.606;8.738;2024-01-25T02:25:48;14.40;1.00
28546;DHT22;15749;49.606;8.738;2024-01-25T02:28:17;14.40;1.00
28546;DHT22;15749;49.606;8.738;2024-01-25T02:30:46;14.40;1.00
28546;DHT22;15749;49.606;8.738;2024-01-25T02:33:16;14.40;1.00
28546;DHT22;15749;49.606;8.738;2024-01-25T02:35:45;14.40;1.00
28546;DHT22;15749;49.606;8.738;2024-01-25T02:38:14;14.40;1.00
28546;DHT22;15749;49.606;8.738;2024-01-25T02:40:45;14.40;1.00
28546;DHT22;15749;49.606;8.738;2024-01-25T02:43:14;14.40;1.00
28546;DHT22;15749;49.606;8.738;2024-01-25T02:45:43;14.40;1.00
28546;DHT22;15749;49.606;8.738;2024-01-25T02:48:13;14.40;1.00
28546;DHT22;15749;49.606;8.738;2024-01-25T02:50:42;14.40;1.00
28546;DHT22;15749;49.606;8.738;2024-01-25T02:53:11;14.40;1.00
28546;DHT22;15749;49.606;8.738;2024-01-25T02:55:41;14.30;1.00
28546;DHT22;15749;49.606;8.738;2024-01-25T02:58:12;14.40;1.00
28546;DHT22;15749;49.606;8.738;2024-01-25T03:00:41;14.30;99.90
28546;DHT22;15749;49.606;8.738;2024-01-25T03:03:10;14.40;1.00
28546;DHT22;15749;49.606;8.738;2024-01-25T03:05:39;14.40;1.00
28546;DHT22;15749;49.606;8.738;2024-01-25T03:08:09;14.30;1.00
28546;DHT22;15749;49.606;8.738;2024-01-25T03:10:38;14.30;1.00
28546;DHT22;15749;49.606;8.738;2024-01-25T03:13:07;14.30;99.90
28546;DHT22;15749;49.606;8.738;2024-01-25T03:15:38;14.30;99.90
28546;DHT22;15749;49.606;8.738;2024-01-25T03:18:07;14.30;99.90
28546;DHT22;15749;49.606;8.738;2024-01-25T03:20:36;14.30;99.90
28546;DHT22;15749;49.606;8.738;2024-01-25T03:23:05;14.30;99.90
28546;DHT22;15749;49.606;8.738;2024-01-25T03:25:34;14.30;99.90
28546;DHT22;15749;49.606;8.738;2024-01-25T03:28:04;14.30;99.90
28546;DHT22;15749;49.606;8.738;2024-01-25T03:30:34;14.30;99.90
28546;DHT22;15749;49.606;8.738;2024-01-25T03:33:05;14.30;99.90
28546;DHT22;15749;49.606;8.738;2024-01-25T03:35:34;14.20;99.90
28546;DHT22;15749;49.606;8.738;2024-01-25T03:38:04;14.30;99.90
28546;DHT22;15749;49.606;8.738;2024-01-25T03:40:33;14.20;99.90
28546;DHT22;15749;49.606;8.738;2024-01-25T03:43:03;14.20;99.90
28546;DHT22;15749;49.606;8.738;2024-01-25T03:45:46;14.20;99.90
28546;DHT22;15749;49.606;8.738;2024-01-25T03:48:18;14.20;99.90
28546;DHT22;15749;49.606;8.738;2024-01-25T03:50:47;14.20;99.90
28546;DHT22;15749;49.606;8.738;2024-01-25T03:53:17;14.20;99.90
28546;DHT22;15749;49.606;8.738;2024-01-25T03:55:46;14.20;99.90
28546;DHT22;15749;49.606;8.738;2024-01-25T03:58:17;14.20;99.90
28546;DHT22;15749;49.606;8.738;2024-01-25T04:00:47;14.20;99.90
28546;DHT22;15749;49.606;8.738;2024-01-25T04:03:17;14.10;99.90
28546;DHT22;15749;49.606;8.738;2024-01-25T04:05:47;14.20;99.90
28546;DHT22;15749;49.606;8.738;2024-01-25T04:08:17;14.10;99.90
28546;DHT22;15749;49.606;8.738;2024-01-25T04:10:46;14.20;99.90
28546;DHT22;15749;49.606;8.738;2024-01-25T04:13:15;14.20;99.90
28546;DHT22;15749;49.606;8.738;2024-01-25T04:15:44;14.20;99.90
28546;DHT22;15749;49.606;8.738;2024-01-25T04:18:13;14.10;99.90
28546;DHT22;15749;49.606;8.738;2024-01-25T04:20:44;14.10;99.90
28546;DHT22;15749;49.606;8.738;2024-01-25T04:23:14;14.10;99.90
28546;DHT22;15749;49.606;8.738;2024-01-25T04:25:43;14.10;99.90
28546;DHT22;15749;49.606;8.738;2024-01-25T04:28:12;14.10;99.90
28546;DHT22;15749;49.606;8.738;2024-01-25T04:30:42;14.10;99.90
28546;DHT22;15749;49.606;8.738;2024-01-25T04:33:11;14.10;99.90
28546;DHT22;15749;49.606;8.738;2024-01-25T04:35:40;14.10;99.90
28546;DHT22;15749;49.606;8.738;2024-01-25T04:38:11;14.10;99.90
28546;DHT22;15749;49.606;8.738;2024-01-25T04:40:40;14.10;99.90
28546;DHT22;15749;49.606;8.738;2024-01-25T04:43:09;14.10;99.90
28546;DHT22;15749;49.606;8.738;2024-01-25T04:45:39;14.10;99.90
28546;DHT22;15749;49.606;8.738;2024-01-25T04:48:08;14.10;99.90
28546;DHT22;15749;49.606;8.738;2024-01-25T04:50:38;14.10;99.90
28546;DHT22;15749;49.606;8.738;2024-01-25T04:53:08;14.10;99.90
28546;DHT22;15749;49.606;8.738;2024-01-25T04:55:38;14.10;99.90
28546;DHT22;15749;49.606;8.738;2024-01-25T04:58:07;14.10;99.90
28546;DHT22;15749;49.606;8.738;2024-01-25T05:00:36;14.10;99.90
28546;DHT22;15749;49.606;8.738;2024-01-25T05:03:08;14.10;99.90
28546;DHT22;15749;49.606;8.738;2024-01-25T05:05:37;14.10;99.90
28546;DHT22;15749;49.606;8.738;2024-01-25T05:08:06;14.00;99.90
28546;DHT22;15749;49.606;8.738;2024-01-25T05:10:37;14.00;99.90
28546;DHT22;15749;49.606;8.738;2024-01-25T05:13:07;14.00;99.90
28546;DHT22;15749;49.606;8.738;2024-01-25T05:15:37;14.00;99.90
28546;DHT22;15749;49.606;8.738;2024-01-25T05:18:06;14.00;99.90
28546;DHT22;15749;49.606;8.738;2024-01-25T05:20:36;14.00;99.90
28546;DHT22;15749;49.606;8.738;2024-01-25T05:23:08;14.00;99.90
28546;DHT22;15749;49.606;8.738;2024-01-25T05:25:38;14.00;99.90
28546;DHT22;15749;49.606;8.738;2024-01-25T05:28:07;14.00;99.90
28546;DHT22;15749;49.606;8.738;2024-01-25T05:30:36;14.00;99.90
28546;DHT22;15749;49.606;8.738;2024-01-25T05:33:06;14.00;99.90
28546;DHT22;15749;49.606;8.738;2024-01-25T05:35:35;14.00;99.90
28546;DHT22;15749;49.606;8.738;2024-01-25T05:38:05;14.00;99.90
28546;DHT22;15749;49.606;8.738;2024-01-25T05:40:38;14.00;99.90
28546;DHT22;15749;49.606;8.738;2024-01-25T05:43:07;14.00;99.90
28546;DHT22;15749;49.606;8.738;2024-01-25T05:45:36;14.00;99.90
28546;DHT22;15749;49.606;8.738;2024-01-25T05:48:06;13.90;99.90
28546;DHT22;15749;49.606;8.738;2024-01-25T05:50:35;13.90;99.90
28546;DHT22;15749;49.606;8.738;2024-01-25T05:53:04;13.90;99.90
28546;DHT22;15749;49.606;8.738;2024-01-25T05:55:33;13.90;99.90
28546;DHT22;15749;49.606;8.738;2024-01-25T05:58:04;13.90;99.90
28546;DHT22;15749;49.606;8.738;2024-01-25T06:00:33;13.90;99.90
28546;DHT22;15749;49.606;8.738;2024-01-25T06:03:03;13.90;99.90
28546;DHT22;15749;49.606;8.738;2024-01-25T06:05:32;13.90;99.90
28546;DHT22;15749;49.606;8.738;2024-01-25T06:08:02;13.90;99.90
28546;DHT22;15749;49.606;8.738;2024-01-25T06:10:31;13.90;99.90
28546;DHT22;15749;49.606;8.738;2024-01-25T06:13:01;13.90;99.90
28546;DHT22;15749;49.606;8.738;2024-01-25T06:15:31;13.90;99.90
28546;DHT22;15749;49.606;8.738;2024-01-25T06:18:00;13.90;99.90
28546;DHT22;15749;49.606;8.738;2024-01-25T06:20:31;13.90;99.90
28546;DHT22;15749;49.606;8.738;2024-01-25T06:23:00;13.80;99.90
28546;DHT22;15749;49.606;8.738;2024-01-25T06:25:29;13.80;99.90
28546;DHT22;15749;49.606;8.738;2024-01-25T06:27:59;13.80;99.90
28546;DHT22;15749;49.606;8.738;2024-01-25T06:30:28;13.80;99.90
28546;DHT22;15749;49.606;8.738;2024-01-25T06:32:59;13.80;99.90
28546;DHT22;15749;49.606;8.738;2024-01-25T06:35:28;13.80;99.90
28546;DHT22;15749;49.606;8.738;2024-01-25T06:37:58;13.80;99.90
28546;DHT22;15749;49.606;8.738;2024-01-25T06:40:27;13.80;99.90
28546;DHT22;15749;49.606;8.738;2024-01-25T06:42:57;13.80;99.90
28546;DHT22;15749;49.606;8.738;2024-01-25T06:45:26;13.80;99.90
28546;DHT22;15749;49.606;8.738;2024-01-25T06:47:55;13.80;99.90
28546;DHT22;15749;49.606;8.738;2024-01-25T06:50:25;13.80;99.90
28546;DHT22;15749;49.606;8.738;2024-01-25T06:52:55;13.80;99.90
28546;DHT22;15749;49.606;8.738;2024-01-25T06:55:27;13.70;99.90
28546;DHT22;15749;49.606;8.738;2024-01-25T06:58:06;13.80;99.90
28546;DHT22;15749;49.606;8.738;2024-01-25T07:00:38;13.80;99.90
28546;DHT22;15749;49.606;8.738;2024-01-25T07:03:10;13.70;99.90
28546;DHT22;15749;49.606;8.738;2024-01-25T07:05:41;13.80;99.90
28546;DHT22;15749;49.606;8.738;2024-01-25T07:08:10;13.80;99.90
28546;DHT22;15749;49.606;8.738;2024-01-25T07:10:41;13.70;99.90
28546;DHT22;15749;49.606;8.738;2024-01-25T07:13:10;13.70;99.90
28546;DHT22;15749;49.606;8.738;2024-01-25T07:15:39;13.70;99.90
28546;DHT22;15749;49.606;8.738;2024-01-25T07:18:08;13.70;99.90
28546;DHT22;15749;49.606;8.738;2024-01-25T07:20:37;13.70;99.90
28546;DHT22;15749;49.606;8.738;2024-01-25T07:23:08;13.70;99.90
28546;DHT22;15749;49.606;8.738;2024-01-25T07:25:37;13.70;99.90
28546;DHT22;15749;49.606;8.738;2024-01-25T07:28:06;13.70;99.90
28546;DHT22;15749;49.606;8.738;2024-01-25T07:30:35;13.70;99.90
28546;DHT22;15749;49.606;8.738;2024-01-25T07:33:05;13.70;99.90
28546;DHT22;15749;49.606;8.738;2024-01-25T07:35:34;13.70;99.90
28546;DHT22;15749;49.606;8.738;2024-01-25T07:38:03;13.70;99.90
28546;DHT22;15749;49.606;8.738;2024-01-25T07:40:34;13.70;99.90
28546;DHT22;15749;49.606;8.738;2024-01-25T07:43:04;13.70;99.90
28546;DHT22;15749;49.606;8.738;2024-01-25T07:45:33;13.70;99.90
28546;DHT22;15749;49.606;8.738;2024-01-25T07:48:02;13.70;99.90
28546;DHT22;15749;49.606;8.738;2024-01-25T07:50:41;13.70;99.90
28546;DHT22;15749;49.606;8.738;2024-01-25T07:53:11;13.70;99.90
28546;DHT22;15749;49.606;8.738;2024-01-25T07:55:43;13.70;99.90
28546;DHT22;15749;49.606;8.738;2024-01-25T07:58:14;13.70;99.90
28546;DHT22;15749;49.606;8.738;2024-01-25T08:00:44;13.60;99.90
28546;DHT22;15749;49.606;8.738;2024-01-25T08:03:14;13.70;99.90
28546;DHT22;15749;49.606;8.738;2024-01-25T08:05:44;13.70;99.90
28546;DHT22;15749;49.606;8.738;2024-01-25T08:08:18;13.70;99.90
28546;DHT22;15749;49.606;8.738;2024-01-25T08:10:48;13.70;99.90
28546;DHT22;15749;49.606;8.738;2024-01-25T08:13:17;13.70;99.90
28546;DHT22;15749;49.606;8.738;2024-01-25T08:15:47;13.70;99.90
28546;DHT22;15749;49.606;8.738;2024-01-25T08:18:16;13.70;99.90
28546;DHT22;15749;49.606;8.738;2024-01-25T08:20:46;13.60;99.90
28546;DHT22;15749;49.606;8.738;2024-01-25T08:23:16;13.60;99.90
28546;DHT22;15749;49.606;8.738;2024-01-25T08:25:47;13.70;99.90
28546;DHT22;15749;49.606;8.738;2024-01-25T08:28:17;13.70;99.90
28546;DHT22;15749;49.606;8.738;2024-01-25T08:30:47;13.70;99.90
28546;DHT22;15749;49.606;8.738;2024-01-25T08:33:16;13.70;99.90
28546;DHT22;15749;49.606;8.738;2024-01-25T08:35:45;13.70;99.90
28546;DHT22;15749;49.606;8.738;2024-01-25T08:38:14;13.70;99.90
28546;DHT22;15749;49.606;8.738;2024-01-25T08:40:44;13.70;99.90
28546;DHT22;15749;49.606;8.738;2024-01-25T08:43:14;13.70;99.90
28546;DHT22;15749;49.606;8.738;2024-01-25T08:45:43;13.70;99.90
28546;DHT22;15749;49.606;8.738;2024-01-25T08:48:12;13.70;99.90
28546;DHT22;15749;49.606;8.738;2024-01-25T08:50:42;13.70;99.90
28546;DHT22;15749;49.606;8.738;2024-01-25T08:53:11;13.80;99.90
28546;DHT22;15749;49.606;8.738;2024-01-25T08:55:40;13.70;99.90
28546;DHT22;15749;49.606;8.738;2024-01-25T08:58:10;13.80;99.90
28546;DHT22;15749;49.606;8.738;2024-01-25T09:00:40;13.80;99.90
28546;DHT22;15749;49.606;8.738;2024-01-25T09:03:13;13.80;99.90
28546;DHT22;15749;49.606;8.738;2024-01-25T09:05:42;13.80;99.90
28546;DHT22;15749;49.606;8.738;2024-01-25T09:08:15;13.80;99.90
28546;DHT22;15749;49.606;8.738;2024-01-25T09:10:45;13.80;99.90
28546;DHT22;15749;49.606;8.738;2024-01-25T09:13:14;13.80;99.90
28546;DHT22;15749;49.606;8.738;2024-01-25T09:15:44;13.80;99.90
28546;DHT22;15749;49.606;8.738;2024-01-25T09:18:14;13.90;99.90
28546;DHT22;15749;49.606;8.738;2024-01-25T09:20:44;13.90;1.00
28546;DHT22;15749;49.606;8.738;2024-01-25T09:23:15;13.90;1.00
28546;DHT22;15749;49.606;8.738;2024-01-25T09:25:45;13.90;1.00
28546;DHT22;15749;49.606;8.738;2024-01-25T09:28:14;13.90;1.00
28546;DHT22;15749;49.606;8.738;2024-01-25T09:30:46;14.00;1.00
28546;DHT22;15749;49.606;8.738;2024-01-25T09:33:15;14.00;1.00
28546;DHT22;15749;49.606;8.738;2024-01-25T09:35:44;14.00;1.00
28546;DHT22;15749;49.606;8.738;2024-01-25T09:38:16;14.10;1.00
28546;DHT22;15749;49.606;8.738;2024-01-25T09:46:40;14.20;1.00
28546;DHT22;15749;49.606;8.738;2024-01-25T09:49:10;14.20;1.00
28546;DHT22;15749;49.606;8.738;2024-01-25T09:51:42;14.20;1.00
28546;DHT22;15749;49.606;8.738;2024-01-25T09:54:13;14.30;1.00
28546;DHT22;15749;49.606;8.738;2024-01-25T09:56:43;14.30;1.00
28546;DHT22;15749;49.606;8.738;2024-01-25T09:59:12;14.30;1.00
28546;DHT22;15749;49.606;8.738;2024-01-25T10:01:43;14.40;1.00
28546;DHT22;15749;49.606;8.738;2024-01-25T10:04:12;14.40;1.00
28546;DHT22;15749;49.606;8.738;2024-01-25T10:06:41;14.40;1.00
28546;DHT22;15749;49.606;8.738;2024-01-25T10:09:11;14.50;1.00
28546;DHT22;15749;49.606;8.738;2024-01-25T10:11:42;14.50;1.00
28546;DHT22;15749;49.606;8.738;2024-01-25T10:14:21;14.50;1.00
28546;DHT22;15749;49.606;8.738;2024-01-25T10:16:51;14.60;1.00
28546;DHT22;15749;49.606;8.738;2024-01-25T10:19:25;14.60;1.00
28546;DHT22;15749;49.606;8.738;2024-01-25T10:21:56;14.70;1.00
28546;DHT22;15749;49.606;8.738;2024-01-25T10:24:26;14.70;1.00
28546;DHT22;15749;49.606;8.738;2024-01-25T10:26:56;14.70;1.00
28546;DHT22;15749;49.606;8.738;2024-01-25T10:29:26;14.80;1.00
28546;DHT22;15749;49.606;8.738;2024-01-25T10:31:56;14.80;1.00
28546;DHT22;15749;49.606;8.738;2024-01-25T10:34:26;14.90;1.00
28546;DHT22;15749;49.606;8.738;2024-01-25T10:36:58;14.90;1.00
28546;DHT22;15749;49.606;8.738;2024-01-25T10:39:29;15.00;1.00
28546;DHT22;15749;49.606;8.738;2024-01-25T10:42:00;15.00;1.00
28546;DHT22;15749;49.606;8.738;2024-01-25T10:44:29;15.10;1.00
28546;DHT22;15749;49.606;8.738;2024-01-25T10:47:02;15.10;1.00
28546;DHT22;15749;49.606;8.738;2024-01-25T10:49:31;15.20;1.00
28546;DHT22;15749;49.606;8.738;2024-01-25T10:52:01;15.20;1.00
28546;DHT22;15749;49.606;8.738;2024-01-25T10:54:32;15.30;1.00
28546;DHT22;15749;49.606;8.738;2024-01-25T10:57:05;15.30;1.00
28546;DHT22;15749;49.606;8.738;2024-01-25T10:59:34;15.40;1.00
28546;DHT22;15749;49.606;8.738;2024-01-25T11:02:05;15.40;1.00
28546;DHT22;15749;49.606;8.738;2024-01-25T11:04:37;15.50;1.00
28546;DHT22;15749;49.606;8.738;2024-01-25T11:07:07;15.50;1.00
28546;DHT22;15749;49.606;8.738;2024-01-25T11:09:37;15.50;1.00
28546;DHT22;15749;49.606;8.738;2024-01-25T11:12:11;15.60;1.00
28546;DHT22;15749;49.606;8.738;2024-01-25T11:14:41;15.60;1.00
28546;DHT22;15749;49.606;8.738;2024-01-25T11:17:22;15.70;1.00
28546;DHT22;15749;49.606;8.738;2024-01-25T11:19:51;15.70;1.00
28546;DHT22;15749;49.606;8.738;2024-01-25T11:22:22;15.70;1.00
28546;DHT22;15749;49.606;8.738;2024-01-25T11:24:52;15.80;1.00
28546;DHT22;15749;49.606;8.738;2024-01-25T11:27:21;15.80;1.00
28546;DHT22;15749;49.606;8.738;2024-01-25T11:29:51;15.80;1.00
28546;DHT22;15749;49.606;8.738;2024-01-25T11:32:21;15.90;1.00
28546;DHT22;15749;49.606;8.738;2024-01-25T11:34:58;15.90;1.00
28546;DHT22;15749;49.606;8.738;2024-01-25T11:37:27;15.90;1.00
28546;DHT22;15749;49.606;8.738;2024-01-25T11:39:57;15.90;1.00
28546;DHT22;15749;49.606;8.738;2024-01-25T11:42:26;16.00;1.00
28546;DHT22;15749;49.606;8.738;2024-01-25T11:44:58;16.00;1.00
28546;DHT22;15749;49.606;8.738;2024-01-25T11:47:29;16.00;1.00
28546;DHT22;15749;49.606;8.738;2024-01-25T11:49:58;16.00;1.00
28546;DHT22;15749;49.606;8.738;2024-01-25T11:52:27;16.10;1.00
28546;DHT22;15749;49.606;8.738;2024-01-25T11:55:01;16.10;1.00
28546;DHT22;15749;49.606;8.738;2024-01-25T11:57:32;16.10;1.00
28546;DHT22;15749;49.606;8.738;2024-01-25T12:00:02;16.10;1.00
28546;DHT22;15749;49.606;8.738;2024-01-25T12:02:36;16.10;1.00
28546;DHT22;15749;49.606;8.738;2024-01-25T12:05:06;16.10;1.00
28546;DHT22;15749;49.606;8.738;2024-01-25T12:07:39;16.10;1.00
28546;DHT22;15749;49.606;8.738;2024-01-25T12:10:15;16.20;1.00
28546;DHT22;15749;49.606;8.738;2024-01-25T12:12:44;16.20;1.00
28546;DHT22;15749;49.606;8.738;2024-01-25T12:15:14;16.10;1.00
28546;DHT22;15749;49.606;8.738;2024-01-25T12:17:45;16.20;1.00
28546;DHT22;15749;49.606;8.738;2024-01-25T12:20:14;16.20;1.00
28546;DHT22;15749;49.606;8.738;2024-01-25T12:22:48;16.20;1.00
28546;DHT22;15749;49.606;8.738;2024-01-25T12:25:17;16.20;1.00
28546;DHT22;15749;49.606;8.738;2024-01-25T12:27:47;16.20;1.00
28546;DHT22;15749;49.606;8.738;2024-01-25T12:30:21;16.20;1.00
28546;DHT22;15749;49.606;8.738;2024-01-25T12:32:51;16.20;1.00
28546;DHT22;15749;49.606;8.738;2024-01-25T12:35:21;16.20;1.00
28546;DHT22;15749;49.606;8.738;2024-01-25T12:37:50;16.20;1.00
28546;DHT22;15749;49.606;8.738;2024-01-25T12:40:19;16.20;1.00
28546;DHT22;15749;49.606;8.738;2024-01-25T12:42:48;16.30;1.00
28546;DHT22;15749;49.606;8.738;2024-01-25T12:45:18;16.20;1.00
28546;DHT22;15749;49.606;8.738;2024-01-25T12:47:47;16.30;1.00
28546;DHT22;15749;49.606;8.738;2024-01-25T12:50:18;16.30;1.00
28546;DHT22;15749;49.606;8.738;2024-01-25T12:52:47;16.30;1.00
28546;DHT22;15749;49.606;8.738;2024-01-25T12:55:18;16.30;1.00
28546;DHT22;15749;49.606;8.738;2024-01-25T12:57:47;16.30;1.00
28546;DHT22;15749;49.606;8.738;2024-01-25T13:00:16;16.40;1.00
28546;DHT22;15749;49.606;8.738;2024-01-25T13:02:46;16.30;1.00
28546;DHT22;15749;49.606;8.738;2024-01-25T13:05:15;16.40;1.00
28546;DHT22;15749;49.606;8.738;2024-01-25T13:07:46;16.40;1.00
28546;DHT22;15749;49.606;8.738;2024-01-25T13:10:15;16.40;1.00
28546;DHT22;15749;49.606;8.738;2024-01-25T13:12:44;16.40;1.00
28546;DHT22;15749;49.606;8.738;2024-01-25T13:15:13;16.40;1.00
28546;DHT22;15749;49.606;8.738;2024-01-25T13:17:43;16.40;1.00
28546;DHT22;15749;49.606;8.738;2024-01-25T13:20:12;16.50;1.00
28546;DHT22;15749;49.606;8.738;2024-01-25T13:22:41;16.50;1.00
28546;DHT22;15749;49.606;8.738;2024-01-25T13:25:12;16.50;1.00
28546;DHT22;15749;49.606;8.738;2024-01-25T13:27:43;16.50;1.00
28546;DHT22;15749;49.606;8.738;2024-01-25T13:30:12;16.50;1.00
28546;DHT22;15749;49.606;8.738;2024-01-25T13:32:42;16.50;1.00
28546;DHT22;15749;49.606;8.738;2024-01-25T13:35:11;16.50;1.00
28546;DHT22;15749;49.606;8.738;2024-01-25T13:37:40;16.50;1.00
28546;DHT22;15749;49.606;8.738;2024-01-25T13:40:09;16.50;1.00
28546;DHT22;15749;49.606;8.738;2024-01-25T13:42:40;16.50;1.00
28546;DHT22;15749;49.606;8.738;2024-01-25T13:45:09;16.50;1.00
28546;DHT22;15749;49.606;8.738;2024-01-25T13:47:39;16.50;1.00
28546;DHT22;15749;49.606;8.738;2024-01-25T13:50:08;16.50;1.00
28546;DHT22;15749;49.606;8.738;2024-01-25T13:52:37;16.40;1.00
28546;DHT22;15749;49.606;8.738;2024-01-25T13:55:07;16.40;1.00
28546;DHT22;15749;49.606;8.738;2024-01-25T13:57:37;16.50;1.00
28546;DHT22;15749;49.606;8.738;2024-01-25T14:00:09;16.50;1.00
28546;DHT22;15749;49.606;8.738;2024-01-25T14:02:40;16.40;1.00
28546;DHT22;15749;49.606;8.738;2024-01-25T14:05:13;16.40;99.90
28546;DHT22;15749;49.606;8.738;2024-01-25T14:07:42;16.40;1.00
28546;DHT22;15749;49.606;8.738;2024-01-25T14:10:13;16.40;1.00
28546;DHT22;15749;49.606;8.738;2024-01-25T14:12:42;16.40;1.00
28546;DHT22;15749;49.606;8.738;2024-01-25T14:15:13;16.40;1.00
28546;DHT22;15749;49.606;8.738;2024-01-25T14:17:43;16.40;1.00
28546;DHT22;15749;49.606;8.738;2024-01-25T14:20:12;16.40;1.00
28546;DHT22;15749;49.606;8.738;2024-01-25T14:22:41;16.40;1.00
28546;DHT22;15749;49.606;8.738;2024-01-25T14:25:11;16.40;1.00
28546;DHT22;15749;49.606;8.738;2024-01-25T14:27:43;16.40;1.00
28546;DHT22;15749;49.606;8.738;2024-01-25T14:30:18;16.40;99.90
28546;DHT22;15749;49.606;8.738;2024-01-25T14:32:47;16.40;99.90
28546;DHT22;15749;49.606;8.738;2024-01-25T14:35:16;16.40;1.00
28546;DHT22;15749;49.606;8.738;2024-01-25T14:37:47;16.40;1.00
28546;DHT22;15749;49.606;8.738;2024-01-25T14:40:18;16.30;99.90
28546;DHT22;15749;49.606;8.738;2024-01-25T14:43:07;16.30;1.00
28546;DHT22;15749;49.606;8.738;2024-01-25T14:45:37;16.30;99.90
28546;DHT22;15749;49.606;8.738;2024-01-25T14:48:07;16.30;99.90
28546;DHT22;15749;49.606;8.738;2024-01-25T14:50:36;16.30;99.90
28546;DHT22;15749;49.606;8.738;2024-01-25T14:53:05;16.30;1.00
28546;DHT22;15749;49.606;8.738;2024-01-25T14:55:34;16.30;1.00
28546;DHT22;15749;49.606;8.738;2024-01-25T14:58:03;16.30;99.90
28546;DHT22;15749;49.606;8.738;2024-01-25T15:00:32;16.30;99.90
28546;DHT22;15749;49.606;8.738;2024-01-25T15:03:03;16.20;99.90
28546;DHT22;15749;49.606;8.738;2024-01-25T15:05:33;16.20;99.90
28546;DHT22;15749;49.606;8.738;2024-01-25T15:08:03;16.20;99.90
28546;DHT22;15749;49.606;8.738;2024-01-25T15:10:32;16.20;99.90
28546;DHT22;15749;49.606;8.738;2024-01-25T15:13:02;16.20;99.90
28546;DHT22;15749;49.606;8.738;2024-01-25T15:15:31;16.20;99.90
28546;DHT22;15749;49.606;8.738;2024-01-25T15:18:00;16.20;99.90
28546;DHT22;15749;49.606;8.738;2024-01-25T15:20:31;16.20;99.90
28546;DHT22;15749;49.606;8.738;2024-01-25T15:23:03;16.10;99.90
28546;DHT22;15749;49.606;8.738;2024-01-25T15:25:32;16.10;99.90
28546;DHT22;15749;49.606;8.738;2024-01-25T15:28:02;16.10;99.90
28546;DHT22;15749;49.606;8.738;2024-01-25T15:30:31;16.10;99.90
28546;DHT22;15749;49.606;8.738;2024-01-25T15:33:00;16.10;99.90
28546;DHT22;15749;49.606;8.738;2024-01-25T15:35:31;16.10;99.90
28546;DHT22;15749;49.606;8.738;2024-01-25T15:38:03;16.10;99.90
28546;DHT22;15749;49.606;8.738;2024-01-25T15:40:35;16.10;99.90
28546;DHT22;15749;49.606;8.738;2024-01-25T15:43:04;16.10;99.90
28546;DHT22;15749;49.606;8.738;2024-01-25T15:45:33;16.00;99.90
28546;DHT22;15749;49.606;8.738;2024-01-25T15:48:03;16.00;99.90
28546;DHT22;15749;49.606;8.738;2024-01-25T15:50:37;16.00;99.90
28546;DHT22;15749;49.606;8.738;2024-01-25T15:53:07;16.00;99.90
28546;DHT22;15749;49.606;8.738;2024-01-25T15:55:36;16.00;99.90
28546;DHT22;15749;49.606;8.738;2024-01-25T15:58:05;16.00;99.90
28546;DHT22;15749;49.606;8.738;2024-01-25T16:00:35;16.00;99.90
28546;DHT22;15749;49.606;8.738;2024-01-25T16:03:04;16.00;99.90